• Join FlightAware (Why Join?)
  • Login
  • US Flag 
10:46AM EDT


 

Airport Tracker/Info


-or-


 

Live Flight TrackerFlight Track Log ✈ UAL118 ✈ 11-Apr-2013 ✈ EDDF / FRA - KEWR

Flight Track Log - Related Links

Times and Time Zones

All times are in EDT time to prevent confusion due to time zone crossing. See the UAL118 flight status page for this flight to view local times or setup timezone preferences in your user account.

Time Position Orientation Groundspeed Altitude Reporting Facility
EDT Latitude Longitude Course Direction KTS MPH feet Rate Location/Type
03:11AM 50.0170 8.5080 249° West 157 181 3,800  Level FlightAware
03:11AM 50.0170 8.4900 270° West 169 194 4,200 1,500 Climbing FlightAware
03:11AM 50.0220 8.4570 283° West 199 229 4,800 1,200 Climbing FlightAware
03:12AM 50.0180 8.4120 262° West 228 262 5,300 960 Climbing FlightAware
03:12AM 50.0120 8.3700 257° West 233 268 5,800 1,380 Climbing FlightAware
03:13AM 50.0060 8.3200 259° West 256 295 6,600 1,500 Climbing FlightAware
03:13AM 50.0040 8.3000 261° West 273 314 6,800 1,200 Climbing FlightAware
03:14AM 50.0110 8.2460 281° West 309 356 7,400 1,680 Climbing FlightAware
03:14AM 50.0230 8.2060 295° West 318 366 8,100 2,580 Climbing FlightAware
03:15AM 50.0530 8.1140 297° West 337 388 10,000 2,700 Climbing FlightAware
03:15AM 50.0900 8.0370 307° West 340 391 11,700 2,100 Climbing FlightAware
03:16AM 50.1360 7.9480 309° West 347 399 13,000 1,800 Climbing FlightAware
03:17AM 50.1770 7.8690 309° West 350 403 14,300 2,160 Climbing FlightAware
03:17AM 50.2190 7.7890 309° West 362 417 15,900 2,220 Climbing FlightAware
03:18AM 50.2780 7.7130 321° Northwest 391 450 17,500 2,100 Climbing FlightAware
03:19AM 50.3460 7.6660 336° Northwest 400 460 18,900 1,860 Climbing FlightAware
03:19AM 50.4230 7.6150 337° Northwest 408 470 20,200 1,800 Climbing FlightAware
03:20AM 50.4920 7.5660 336° Northwest 412 474 21,500 1,680 Climbing FlightAware
03:21AM 50.5570 7.5110 332° Northwest 413 475 22,500 1,620 Climbing FlightAware
03:22AM 50.6370 7.4400 331° Northwest 426 490 23,800 1,680 Climbing FlightAware
03:22AM 50.7040 7.3800 330° Northwest 423 487 24,900 1,500 Climbing FlightAware
03:23AM 50.7780 7.2980 325° Northwest 417 480 26,000 1,320 Climbing FlightAware
03:24AM 50.8240 7.2030 307° West 416 479 26,800 1,260 Climbing FlightAware
03:24AM 50.8690 7.0970 304° West 424 488 27,700 1,680 Climbing FlightAware
03:25AM 50.9180 6.9800 304° West 415 478 29,200 1,740 Climbing FlightAware
03:26AM 50.9570 6.8860 303° West 415 478 30,200 1,500 Climbing FlightAware
03:26AM 51.0060 6.7680 303° West 413 475 31,400 1,500 Climbing FlightAware
03:27AM 51.0480 6.6650 303° West 410 472 32,400 1,380 Climbing FlightAware
03:28AM 51.0900 6.5630 303° West 409 471 33,300 1,380 Climbing FlightAware
03:29AM 51.1340 6.4540 303° West 397 457 34,400 1,260 Climbing FlightAware
03:29AM 51.1760 6.3520 303° West 402 463 35,100 900 Climbing FlightAware
03:30AM 51.2160 6.2550 303° West 404 465 35,600 600 Climbing FlightAware
03:31AM 51.2630 6.1360 302° West 408 470 36,000 240 Climbing FlightAware
03:31AM 51.3030 6.0380 303° West 406 467 36,000  Level FlightAware
03:32AM 51.3480 5.9270 303° West 403 464 36,000  Level FlightAware
03:33AM 51.3890 5.8230 302° West 402 463 36,000  Level FlightAware
03:33AM 51.4270 5.7280 303° West 402 463 36,000  Level FlightAware
03:34AM 51.4720 5.6140 302° West 402 463 36,000  Level FlightAware
03:35AM 51.5140 5.5070 302° West 401 461 36,000 -1,320 Level FlightAware
03:35AM 51.5469 5.4254 302° West 454 522 34,500  Descending FlightAware UK
03:36AM 51.5570 5.3980 302° West 403 464 36,000  Climbing FlightAware
03:36AM 51.5850 5.3371 302° West 456 525 34,500 -2,400 Descending FlightAware UK
03:36AM 51.6031 5.2920 303° West 456 525 34,500 4,500 Level FlightAware UK
03:36AM 51.5960 5.2970 303° West 403 464 36,000  Climbing FlightAware
03:37AM 51.6405 5.2026 303° West 458 527 34,500  Descending FlightAware UK
03:37AM 51.6350 5.1980 303° West 404 465 36,000 1,740 Climbing FlightAware
03:38AM 51.6800 5.0800 302° West 403 464 36,000  Level FlightAware
03:38AM 51.7210 4.9760 303° West 403 464 36,000 -1,440 Level FlightAware
03:39AM 51.7508 4.9110 303° West 456 525 34,500  Descending FlightAware UK
03:39AM 51.7680 4.8640 303° West 413 475 36,000  Climbing FlightAware
03:39AM 51.8066 4.7974 303° West 456 525 34,500  Descending FlightAware UK
03:40AM 51.8230 4.7840 303° West 419 482 36,000  Climbing FlightAware
03:40AM 51.8555 4.7421 303° West 454 522 34,500 -2,280 Descending FlightAware UK
03:40AM 51.8926 4.6956 322° Northwest 456 525 34,500 3,720 Level FlightAware UK
03:40AM 51.8840 4.6980 322° Northwest 417 480 36,000  Climbing FlightAware
03:41AM 51.9535 4.6087 322° Northwest 458 527 34,500  Descending FlightAware UK
03:41AM 51.9500 4.6020 322° Northwest 418 481 36,000  Climbing FlightAware
03:41AM 51.9796 4.5711 322° Northwest 460 529 34,500  Descending FlightAware UK
03:42AM 52.0050 4.5220 322° Northwest 417 480 36,000  Climbing FlightAware
03:42AM 52.0399 4.4833 322° Northwest 458 527 34,500  Descending FlightAware UK
03:42AM 52.0620 4.4380 322° Northwest 416 479 36,000  Climbing FlightAware
03:43AM 52.1071 4.3827 322° Northwest 458 527 34,500  Descending FlightAware UK
03:43AM 52.1260 4.3430 322° Northwest 416 479 36,000  Climbing FlightAware
03:44AM 52.1928 4.2571 322° Northwest 458 527 34,500  Descending FlightAware UK
03:44AM 52.1840 4.2580 322° Northwest 416 479 36,000 1,980 Climbing FlightAware
03:45AM 52.2450 4.1690 318° Northwest 418 481 36,000 -1,380 Level FlightAware
03:45AM 52.2867 4.1183 318° Northwest 456 525 34,500  Descending FlightAware UK
03:45AM 52.3060 4.0790 318° Northwest 419 482 36,000  Climbing FlightAware
03:46AM 52.3381 4.0423 318° Northwest 456 525 34,500  Descending FlightAware UK
03:46AM 52.3550 4.0060 318° Northwest 419 482 36,000  Climbing FlightAware
03:46AM 52.4071 3.9403 318° Northwest 456 525 34,500  Descending FlightAware UK
03:47AM 52.4140 3.9180 318° Northwest 419 482 36,000  Climbing FlightAware
03:47AM 52.4672 3.8504 318° Northwest 458 527 34,500  Descending FlightAware UK
03:47AM 52.4760 3.8260 318° Northwest 420 483 36,000  Climbing FlightAware
03:48AM 52.5098 3.7859 318° Northwest 458 527 34,500  Descending FlightAware UK
03:48AM 52.5360 3.7350 318° Northwest 421 484 36,000  Climbing FlightAware
03:48AM 52.5788 3.6826 318° Northwest 458 527 34,500  Descending FlightAware UK
03:49AM 52.5990 3.6410 318° Northwest 421 484 36,000  Climbing FlightAware
03:49AM 52.6303 3.6049 318° Northwest 458 527 34,500 -2,700 Descending FlightAware UK
03:49AM 52.6555 3.5653 316° Northwest 458 527 34,500 3,720 Level FlightAware UK
03:49AM 52.6550 3.5520 316° Northwest 417 480 36,000  Climbing FlightAware
03:50AM 52.6845 3.5056 316° Northwest 458 527 34,500 -2,520 Descending FlightAware UK
03:50AM 52.7025 3.4584 302° West 458 527 34,500 3,300 Level FlightAware UK
03:50AM 52.7040 3.4340 302° West 408 470 36,000  Climbing FlightAware
03:51AM 52.7406 3.3450 302° West 458 527 34,500  Descending FlightAware UK
03:51AM 52.7410 3.3260 302° West 409 471 36,000  Climbing FlightAware
03:51AM 52.7621 3.2798 302° West 458 527 34,500  Descending FlightAware UK
03:51AM 52.7680 3.2450 302° West 409 471 36,000  Climbing FlightAware
03:52AM 52.7947 3.1816 302° West 458 527 34,500  Descending FlightAware UK
03:52AM 52.8040 3.1360 302° West 409 471 36,000  Climbing FlightAware
03:52AM 52.8374 3.0497 302° West 458 527 34,500  Descending FlightAware UK
03:53AM 52.8380 3.0240 302° West 406 467 36,000  Climbing FlightAware
03:53AM 52.8539 2.9806 302° West 456 525 34,500 -2,340 Descending FlightAware UK
03:53AM 52.8686 2.9106 289° West 452 520 34,500 2,760 Level FlightAware UK
03:53AM 52.8680 2.8840 289° West 404 465 36,000  Climbing FlightAware
03:54AM 52.8825 2.8406 289° West 454 522 34,500 -2,700 Descending FlightAware UK
03:54AM 52.8931 2.7892 289° West 452 520 34,500 4,080 Level FlightAware UK
03:54AM 52.8900 2.7770 289° West 406 467 36,000  Climbing FlightAware
03:54AM 52.9069 2.7194 289° West 456 525 34,500 -2,460 Descending FlightAware UK
03:55AM 52.9170 2.6659 287° West 454 522 34,500 4,260 Level FlightAware UK
03:55AM 52.9130 2.6590 287° West 407 468 36,000  Climbing FlightAware
03:55AM 52.9375 2.5587 287° West 458 527 34,500  Descending FlightAware UK
03:55AM 52.9380 2.5270 287° West 408 470 36,000  Climbing FlightAware
03:56AM 52.9577 2.4510 287° West 458 527 34,500  Descending FlightAware UK
03:56AM 52.9610 2.4040 287° West 410 472 36,000  Climbing FlightAware
03:56AM 52.9781 2.3431 287° West 460 529 34,500 -2,400 Descending FlightAware UK
03:57AM 52.9880 2.2898 287° West 460 529 34,500 4,500 Level FlightAware UK
03:57AM 52.9840 2.2830 287° West 410 472 36,000  Climbing FlightAware
03:57AM 52.9983 2.2352 287° West 460 529 34,500 -2,700 Descending FlightAware UK
03:57AM 53.0084 2.1811 287° West 462 532 34,500 3,420 Level FlightAware UK
03:58AM 53.0083 2.1531 287° West 411 473 36,000  Climbing FlightAware ADS-B
03:58AM 53.0218 2.1096 287° West 462 532 34,500  Descending FlightAware UK
03:58AM 53.0253 2.0624 287° West 411 473 36,000 1,680 Climbing FlightAware ADS-B
03:59AM 53.0471 1.9446 287° West 410 472 36,000  Level FlightAware ADS-B
03:59AM 53.0641 1.8520 287° West 411 473 36,000 -1,860 Level FlightAware ADS-B
03:59AM 53.0784 1.8033 287° West 460 529 34,500  Descending FlightAware UK
04:00AM 53.0809 1.7606 287° West 411 473 36,000  Climbing FlightAware ADS-B
04:00AM 53.0984 1.6948 287° West 460 529 34,500  Descending FlightAware UK
04:00AM 53.0986 1.6629 287° West 412 474 36,000  Climbing FlightAware ADS-B
04:01AM 53.1148 1.6049 287° West 460 529 34,500  Descending FlightAware UK
04:01AM 53.1155 1.5705 287° West 411 473 36,000  Climbing FlightAware ADS-B
04:01AM 53.1314 1.5143 287° West 460 529 34,500  Descending FlightAware UK
04:01AM 53.1318 1.4794 287° West 411 473 36,000  Climbing FlightAware ADS-B
04:02AM 53.1476 1.4236 287° West 460 529 34,500  Descending FlightAware UK
04:02AM 53.1486 1.3857 287° West 411 473 36,000  Climbing FlightAware ADS-B
04:02AM 53.1639 1.3328 287° West 460 529 34,500  Descending FlightAware UK
04:02AM 53.1653 1.2924 287° West 412 474 36,000  Climbing FlightAware ADS-B
04:03AM 53.1801 1.2427 287° West 458 527 34,500  Descending FlightAware UK
04:03AM 53.1819 1.1984 287° West 413 475 36,000  Climbing FlightAware ADS-B
04:03AM 53.1964 1.1512 287° West 458 527 34,500  Descending FlightAware UK
04:03AM 53.1984 1.1041 287° West 413 475 36,000  Climbing FlightAware ADS-B
04:04AM 53.2127 1.0599 287° West 458 527 34,500  Descending FlightAware UK
04:04AM 53.2160 1.0034 287° West 415 478 36,000  Climbing FlightAware ADS-B
04:04AM 53.2321 0.9506 287° West 458 527 34,500  Descending FlightAware UK
04:04AM 53.2331 0.9055 287° West 415 478 36,000  Climbing FlightAware ADS-B
04:05AM 53.2481 0.8585 287° West 460 529 34,500  Descending FlightAware UK
04:05AM 53.2495 0.8102 287° West 416 479 36,000  Climbing FlightAware ADS-B
04:05AM 53.2641 0.7661 287° West 460 529 34,500  Descending FlightAware UK
04:05AM 53.2655 0.7173 287° West 416 479 36,000  Climbing FlightAware ADS-B
04:06AM 53.2835 0.6551 287° West 460 529 34,500  Descending FlightAware UK
04:06AM 53.2816 0.6236 287° West 417 480 36,000  Climbing FlightAware ADS-B
04:06AM 53.2962 0.5808 287° West 460 529 34,500  Descending FlightAware UK
04:06AM 53.2976 0.5297 287° West 417 480 36,000  Climbing FlightAware ADS-B
04:07AM 53.3153 0.4701 287° West 462 532 34,500  Descending FlightAware UK
04:07AM 53.3134 0.4370 287° West 418 481 36,000  Climbing FlightAware ADS-B
04:07AM 53.3310 0.3770 287° West 462 532 34,500  Descending FlightAware UK
04:07AM 53.3292 0.3429 287° West 418 481 36,000  Climbing FlightAware ADS-B
04:08AM 53.3467 0.2839 287° West 460 529 34,500  Descending FlightAware UK
04:08AM 53.3460 0.2426 287° West 417 480 36,000  Climbing FlightAware ADS-B
04:08AM 53.3624 0.1908 287° West 460 529 34,500  Descending FlightAware UK
04:08AM 53.3618 0.1471 287° West 417 480 36,000  Climbing FlightAware ADS-B
04:09AM 53.3810 0.0796 287° West 460 529 34,500  Descending FlightAware UK
04:09AM 53.3786 0.0458 287° West 419 482 36,000 2,160 Climbing FlightAware ADS-B
04:10AM 53.3944 -0.0505 285° West 421 484 36,000  Level FlightAware ADS-B
04:10AM 53.4099 -0.1454 285° West 424 488 36,000  Level FlightAware ADS-B
04:11AM 53.4255 -0.2411 285° West 425 489 36,000 -1,680 Level FlightAware ADS-B
04:11AM 53.4465 -0.3168 285° West 464 534 34,500  Descending FlightAware UK
04:11AM 53.4419 -0.3432 285° West 426 490 36,000  Climbing FlightAware ADS-B
04:11AM 53.4588 -0.3925 285° West 466 536 34,500  Descending FlightAware UK
04:12AM 53.4576 -0.4400 285° West 427 491 36,000  Climbing FlightAware ADS-B
04:12AM 53.4772 -0.5077 285° West 462 532 34,500  Descending FlightAware UK
04:12AM 53.4789 -0.5744 285° West 428 493 36,000  Climbing FlightAware ADS-B
04:13AM 53.4960 -0.6231 285° West 464 534 34,500  Descending FlightAware UK
04:13AM 53.4957 -0.6801 285° West 431 496 36,000  Climbing FlightAware ADS-B
04:13AM 53.5145 -0.7388 285° West 464 534 34,500  Descending FlightAware UK
04:13AM 53.5115 -0.7810 285° West 433 498 36,000  Climbing FlightAware ADS-B
04:14AM 53.5299 -0.8363 285° West 466 536 34,500  Descending FlightAware UK
04:14AM 53.5270 -0.8790 285° West 434 499 36,000 3,900 Climbing FlightAware
04:14AM 53.5326 -0.9155 284° West 434 499 36,000 -3,240 Level FlightAware ADS-B
04:14AM 53.5515 -0.9734 284° West 466 536 34,500  Descending FlightAware UK
04:15AM 53.5499 -1.0269 284° West 435 501 36,000  Climbing FlightAware ADS-B
04:15AM 53.5668 -1.0716 284° West 468 539 34,500  Descending FlightAware UK
04:15AM 53.5655 -1.1288 284° West 436 502 36,000 1,860 Climbing FlightAware ADS-B
04:16AM 53.5812 -1.2303 285° West 437 503 36,000 -1,680 Level FlightAware ADS-B
04:16AM 53.6033 -1.3070 285° West 466 536 34,500  Descending FlightAware UK
04:16AM 53.5971 -1.3354 285° West 438 504 36,000 2,280 Climbing FlightAware ADS-B
04:17AM 53.6123 -1.4355 284° West 439 505 36,000  Level FlightAware ADS-B
04:17AM 53.6273 -1.5359 284° West 439 505 36,000  Level FlightAware ADS-B
04:18AM 53.6442 -1.6490 284° West 440 506 36,000  Level FlightAware ADS-B
04:18AM 53.6593 -1.7511 284° West 440 506 36,000  Level FlightAware ADS-B
04:19AM 53.6742 -1.8519 284° West 440 506 36,000 -1,980 Level FlightAware ADS-B
04:19AM 53.6928 -1.9027 284° West 468 539 34,500  Descending FlightAware UK
04:19AM 53.6915 -1.9707 284° West 440 506 36,000  Climbing FlightAware ADS-B
04:20AM 53.7132 -2.0418 284° West 468 539 34,500  Descending FlightAware UK
04:20AM 53.7067 -2.0749 284° West 439 505 36,000  Climbing FlightAware ADS-B
04:20AM 53.7278 -2.1414 284° West 470 541 34,500  Descending FlightAware UK
04:20AM 53.7213 -2.1755 284° West 437 503 36,000 2,100 Climbing FlightAware ADS-B
04:21AM 53.7362 -2.2799 284° West 436 502 36,000 -1,800 Level FlightAware ADS-B
04:21AM 53.7566 -2.3392 284° West 468 539 34,500  Descending FlightAware UK
04:21AM 53.7509 -2.3839 284° West 435 501 36,000  Climbing FlightAware ADS-B
04:22AM 53.7707 -2.4382 284° West 466 536 34,500 -2,760 Descending FlightAware UK
04:22AM 53.7791 -2.4968 284° West 464 534 34,500 2,640 Level FlightAware UK
04:22AM 53.7730 -2.5430 284° West 433 498 36,000  Climbing FlightAware
04:23AM 53.8042 -2.6738 284° West 466 536 34,500  Descending FlightAware UK
04:23AM 53.7930 -2.6860 284° West 433 498 36,000  Climbing FlightAware
04:23AM 53.8152 -2.7529 284° West 466 536 34,500 -2,700 Descending FlightAware UK
04:24AM 53.8235 -2.8122 283° West 466 536 34,500 3,720 Level FlightAware UK
04:24AM 53.8120 -2.8220 283° West 432 497 36,000  Climbing FlightAware
04:24AM 53.8345 -2.8912 283° West 464 534 34,500 -2,520 Descending FlightAware UK
04:24AM 53.8426 -2.9498 283° West 466 536 34,500 3,300 Level FlightAware UK
04:24AM 53.8330 -2.9730 283° West 433 498 36,000  Climbing FlightAware
04:25AM 53.8535 -3.0288 283° West 464 534 34,500  Descending FlightAware UK
04:25AM 53.8530 -3.0940 283° West 434 499 36,000  Climbing FlightAware
04:25AM 53.8802 -3.1638 283° West 464 534 34,500  Descending FlightAware UK
04:26AM 53.8820 -3.2370 283° West 431 496 36,000  Climbing FlightAware
04:26AM 53.9113 -3.3175 283° West 464 534 34,500  Descending FlightAware UK
04:27AM 53.9080 -3.3690 283° West 433 498 36,000  Climbing FlightAware
04:27AM 53.9334 -3.4340 283° West 464 534 34,500  Descending FlightAware UK
04:27AM 53.9310 -3.4970 283° West 433 498 36,000  Climbing FlightAware
04:28AM 53.9584 -3.5698 283° West 464 534 34,500 -2,520 Descending FlightAware UK
04:28AM 53.9694 -3.6288 288° West 464 534 34,500 3,300 Level FlightAware UK
04:28AM 53.9580 -3.6440 288° West 434 499 36,000  Climbing FlightAware
04:28AM 53.9837 -3.7062 288° West 464 534 34,500 -2,760 Descending FlightAware UK
04:29AM 53.9946 -3.7654 287° West 464 534 34,500 3,600 Level FlightAware UK
04:29AM 53.9820 -3.7720 287° West 434 499 36,000  Climbing FlightAware
04:29AM 54.0089 -3.8428 287° West 464 534 34,500  Descending FlightAware UK
04:29AM 54.0100 -3.9200 287° West 434 499 36,000  Climbing FlightAware
04:30AM 54.0386 -3.9985 287° West 464 534 34,500  Descending FlightAware UK
04:30AM 54.0340 -4.0470 287° West 434 499 36,000  Climbing FlightAware
04:30AM 54.0609 -4.1154 287° West 464 534 34,500  Descending FlightAware UK
04:31AM 54.0580 -4.1760 287° West 434 499 36,000  Climbing FlightAware
04:31AM 54.0865 -4.2519 287° West 464 534 34,500 -2,580 Descending FlightAware UK
04:31AM 54.0972 -4.3099 287° West 464 534 34,500 3,300 Level FlightAware UK
04:31AM 54.0850 -4.3230 287° West 433 498 36,000  Climbing FlightAware
04:32AM 54.1189 -4.4271 287° West 466 536 34,500  Descending FlightAware UK
04:32AM 54.1090 -4.4540 287° West 433 498 36,000  Climbing FlightAware
04:32AM 54.1369 -4.5247 287° West 464 534 34,500 -2,700 Descending FlightAware UK
04:33AM 54.1475 -4.5834 287° West 464 534 34,500 3,060 Level FlightAware UK
04:33AM 54.1350 -4.6000 287° West 433 498 36,000  Climbing FlightAware
04:33AM 54.1627 -4.6824 287° West 462 532 34,500  Descending FlightAware UK
04:34AM 54.1550 -4.7320 287° West 432 497 36,000  Climbing FlightAware
04:34AM 54.1787 -4.8016 287° West 464 534 34,500 -2,760 Descending FlightAware UK
04:34AM 54.1861 -4.8616 282° West 464 534 34,500 3,600 Level FlightAware UK
04:34AM 54.1720 -4.8670 282° West 430 495 36,000  Climbing FlightAware
04:35AM 54.1955 -4.9409 282° West 464 534 34,500 -2,580 Descending FlightAware UK
04:35AM 54.2027 -5.0009 281° West 462 532 34,500 3,180 Level FlightAware UK
04:35AM 54.1890 -5.0140 281° West 431 496 36,000  Climbing FlightAware
04:35AM 54.2146 -5.1009 281° West 464 534 34,500  Descending FlightAware UK
04:36AM 54.2050 -5.1490 281° West 432 497 36,000  Climbing FlightAware
04:36AM 54.2289 -5.2211 281° West 464 534 34,500 -2,700 Descending FlightAware UK
04:36AM 54.2362 -5.2812 282° West 464 534 34,500 3,720 Level FlightAware UK
04:36AM 54.2210 -5.2820 282° West 431 496 36,000  Climbing FlightAware
04:37AM 54.2459 -5.3614 282° West 462 532 34,500 -2,520 Descending FlightAware UK
04:37AM 54.2531 -5.4216 282° West 464 534 34,500 3,300 Level FlightAware UK
04:37AM 54.2390 -5.4300 282° West 433 498 36,000  Climbing FlightAware
04:37AM 54.2626 -5.5021 282° West 462 532 34,500 -2,760 Descending FlightAware UK
04:38AM 54.2697 -5.5626 281° West 462 532 34,500 3,600 Level FlightAware UK
04:38AM 54.2550 -5.5690 281° West 435 501 36,000  Climbing FlightAware
04:38AM 54.2793 -5.6433 281° West 464 534 34,500 -2,580 Descending FlightAware UK
04:38AM 54.2865 -5.7040 281° West 462 532 34,500 3,900 Level FlightAware UK
04:38AM 54.2700 -5.6960 281° West 435 501 36,000  Climbing FlightAware
04:39AM 54.2960 -5.7850 281° West 462 532 34,500 -2,460 Descending FlightAware UK
04:39AM 54.3032 -5.8458 281° West 462 532 34,500 3,420 Level FlightAware UK
04:39AM 54.2880 -5.8500 281° West 437 503 36,000  Climbing FlightAware
04:39AM 54.3126 -5.9272 281° West 462 532 34,500 -2,700 Descending FlightAware UK
04:40AM 54.3195 -5.9883 281° West 462 532 34,500 3,720 Level FlightAware UK
04:40AM 54.3050 -5.9900 281° West 439 505 36,000  Climbing FlightAware
04:40AM 54.3289 -6.0700 281° West 462 532 34,500 -2,520 Descending FlightAware UK
04:40AM 54.3358 -6.1306 281° West 462 532 34,500 3,300 Level FlightAware UK
04:41AM 54.3210 -6.1360 281° West 441 507 36,000  Climbing FlightAware
04:41AM 54.3450 -6.2126 281° West 462 532 34,500 -2,760 Descending FlightAware UK
04:41AM 54.3519 -6.2742 281° West 464 534 34,500 3,600 Level FlightAware UK
04:41AM 54.3370 -6.2790 281° West 442 509 36,000  Climbing FlightAware
04:42AM 54.3611 -6.3566 281° West 464 534 34,500 -2,580 Descending FlightAware UK
04:42AM 54.3680 -6.4184 281° West 464 534 34,500 3,900 Level FlightAware UK
04:42AM 54.3530 -6.4180 281° West 442 509 36,000  Climbing FlightAware
04:42AM 54.3772 -6.5009 281° West 464 534 34,500 -2,460 Descending FlightAware UK
04:43AM 54.3840 -6.5630 281° West 464 534 34,500 4,260 Level FlightAware UK
04:43AM 54.3670 -6.5480 281° West 443 510 36,000  Climbing FlightAware
04:43AM 54.3906 -6.6250 281° West 466 536 34,500 -2,760 Descending FlightAware UK
04:43AM 54.3973 -6.6871 280° West 466 536 34,500 2,520 Level FlightAware UK
04:43AM 54.3870 -6.7280 280° West 445 512 36,000  Climbing FlightAware
04:44AM 54.4108 -6.8118 280° West 466 536 34,500  Descending FlightAware UK
04:44AM 54.4020 -6.8640 280° West 445 512 36,000  Climbing FlightAware
04:44AM 54.4241 -6.9365 280° West 466 536 34,500 -2,760 Descending FlightAware UK
04:45AM 54.4307 -6.9989 280° West 468 539 34,500 3,600 Level FlightAware UK
04:45AM 54.4170 -7.0090 280° West 445 512 36,000  Climbing FlightAware
04:45AM 54.4395 -7.0820 280° West 468 539 34,500 -2,580 Descending FlightAware UK
04:45AM 54.4460 -7.1444 280° West 470 541 34,500 3,180 Level FlightAware UK
04:45AM 54.4330 -7.1590 280° West 444 511 36,000  Climbing FlightAware
04:46AM 54.4568 -7.2482 280° West 468 539 34,500 -2,400 Descending FlightAware UK
04:46AM 54.4632 -7.3104 280° West 468 539 34,500 4,500 Level FlightAware UK
04:46AM 54.4470 -7.2950 280° West 443 510 36,000  Climbing FlightAware
04:46AM 54.4696 -7.3718 280° West 466 536 34,500 -2,700 Descending FlightAware UK
04:47AM 54.4759 -7.4339 280° West 466 536 34,500 3,720 Level FlightAware UK
04:47AM 54.4610 -7.4320 280° West 442 509 36,000  Climbing FlightAware
04:47AM 54.4843 -7.5167 280° West 466 536 34,500 -2,520 Descending FlightAware UK
04:47AM 54.4907 -7.5788 280° West 466 536 34,500 3,300 Level FlightAware UK
04:48AM 54.4770 -7.5900 280° West 443 510 36,000  Climbing FlightAware
04:48AM 54.4988 -7.6618 280° West 466 536 34,500 -2,760 Descending FlightAware UK
04:48AM 54.5049 -7.7242 280° West 466 536 34,500 3,600 Level FlightAware UK
04:48AM 54.4920 -7.7320 280° West 443 510 36,000  Climbing FlightAware
04:49AM 54.5131 -7.8075 280° West 466 536 34,500 -2,580 Descending FlightAware UK
04:49AM 54.5192 -7.8701 280° West 466 536 34,500 3,180 Level FlightAware UK
04:49AM 54.5070 -7.8860 280° West 445 512 36,000  Climbing FlightAware
04:49AM 54.5294 -7.9745 280° West 466 536 34,500 -2,400 Descending FlightAware UK
04:50AM 54.5355 -8.0373 280° West 464 534 34,500 4,500 Level FlightAware UK
04:50AM 54.5200 -8.0220 280° West 445 512 36,000  Climbing FlightAware
04:50AM 54.5415 -8.1002 280° West 468 539 34,500 -2,700 Descending FlightAware UK
04:50AM 54.5477 -8.1631 280° West 468 539 34,500 3,060 Level FlightAware UK
04:50AM 54.5360 -8.1830 280° West 445 512 36,000  Climbing FlightAware
04:51AM 54.5575 -8.2681 280° West 466 536 34,500 -2,460 Descending FlightAware UK
04:51AM 54.5634 -8.3312 279° West 468 539 34,500 4,260 Level FlightAware UK
04:51AM 54.5490 -8.3230 279° West 446 513 36,000  Climbing FlightAware
04:51AM 54.5694 -8.3943 279° West 466 536 34,500 -2,760 Descending FlightAware UK
04:52AM 54.5753 -8.4575 279° West 466 536 34,500 3,600 Level FlightAware UK
04:52AM 54.5630 -8.4660 279° West 447 514 36,000  Climbing FlightAware
04:52AM 54.5831 -8.5418 279° West 466 536 34,500 -2,580 Descending FlightAware UK
04:52AM 54.5890 -8.6051 279° West 470 541 34,500 3,180 Level FlightAware UK
04:52AM 54.5780 -8.6210 279° West 448 516 36,000  Climbing FlightAware
04:53AM 54.5986 -8.7100 279° West 468 539 34,500  Descending FlightAware UK
04:53AM 54.5910 -8.7620 279° West 449 517 36,000  Climbing FlightAware
04:53AM 54.6101 -8.8368 279° West 468 539 34,500 -2,700 Descending FlightAware UK
04:54AM 54.6156 -8.9001 279° West 468 539 34,500 3,060 Level FlightAware UK
04:54AM 54.6050 -8.9220 279° West 449 517 36,000  Climbing FlightAware
04:54AM 54.6249 -9.0057 279° West 468 539 34,500  Descending FlightAware UK
04:55AM 54.6170 -9.0600 279° West 449 517 36,000 1,440 Climbing FlightAware
04:55AM 54.6300 -9.2050 279° West 450 518 36,000  Level FlightAware
04:56AM 54.6440 -9.3630 279° West 448 516 36,000  Level FlightAware
04:57AM 54.6560 -9.5040 278° West 448 516 36,000  Level FlightAware
04:57AM 54.6680 -9.6470 278° West 448 516 36,000  Level FlightAware
04:58AM 54.6810 -9.8030 278° West 449 517 36,000  Level FlightAware
04:59AM 54.6930 -9.9470 278° West 449 517 36,000  Level FlightAware
04:59AM 54.7040 -10.0860 278° West 447 514 36,000  Level FlightAware
05:00AM 54.7170 -10.2400 278° West 437 503 36,000  Level FlightAware
05:01AM 54.7290 -10.3990 278° West 424 488 36,000  Level FlightAware
05:01AM 54.7380 -10.5170 278° West 415 478 36,000  Level FlightAware
05:02AM 54.7500 -10.6680 278° West 410 472 36,000  Level FlightAware
05:03AM 54.7590 -10.7950 277° West 410 472 36,000  Level FlightAware
05:04AM 54.7740 -10.9960 277° West 413 475 36,000  Level FlightAware
05:05AM 54.7840 -11.1270 278° West 414 476 36,000  Level FlightAware
05:05AM 54.7920 -11.2510 276° West 409 471 36,000  Level FlightAware
05:06AM 54.8010 -11.3690 278° West 403 464 36,000  Level FlightAware
05:07AM 54.8120 -11.5280 277° West 404 465 36,000  Level FlightAware
05:08AM 54.8320 -11.8360 277° West 412 474 36,000  Level FlightAware
05:09AM 54.8430 -12.0010 277° West 414 476 36,000  Level FlightAware
05:10AM 54.8560 -12.2070 276° West 416 479 36,000  Level FlightAware
05:11AM 54.8630 -12.3230 276° West 416 479 36,000  Level FlightAware
05:11AM 54.8730 -12.4760 277° West 416 479 36,000  Level FlightAware
05:12AM 54.8810 -12.6190 276° West 415 478 36,000  Level FlightAware
05:13AM 54.8900 -12.7670 276° West 412 474 36,000  Level FlightAware
05:14AM 54.8960 -12.8720 276° West 410 472 36,000  Level FlightAware
05:14AM 54.9040 -13.0280 275° West 406 467 36,000  Level FlightAware
05:15AM 54.9130 -13.1760 276° West 403 464 36,000  Level FlightAware
05:16AM 54.9190 -13.3020 275° West 401 461 36,000  Level FlightAware
05:16AM 54.9270 -13.4510 275° West 398 458 36,000  Level FlightAware
05:17AM 54.9330 -13.5710 275° West 397 457 36,000  Level FlightAware
05:18AM 54.9400 -13.7010 275° West 397 457 36,000  Level FlightAware
05:18AM 54.9450 -13.8100 275° West 397 457 36,000  Level FlightAware
05:19AM 54.9510 -13.9180 276° West 397 457 36,000  Level FlightAware
05:20AM 54.9570 -14.0530 274° West 397 457 36,000  Level FlightAware
05:21AM 54.9630 -14.1620 276° West 397 457 36,000  Level FlightAware
05:21AM 54.9680 -14.2700 275° West 397 457 36,000  Level FlightAware
05:22AM 54.9740 -14.3780 276° West 397 457 36,000  Level FlightAware
05:23AM 54.9790 -14.4870 275° West 397 457 36,000  Level FlightAware
05:23AM 54.9860 -14.6220 275° West 397 457 36,000  Level FlightAware
05:24AM 54.9910 -14.7310 275° West 397 457 36,000  Level FlightAware
05:25AM 54.9970 -14.8390 276° West 397 457 36,000  Level FlightAware
05:25AM 55.0020 -14.9480 275° West 397 457 36,000  Level FlightAware
05:26AM 55.0080 -15.0560 276° West 397 457 36,000  Level FlightAware
05:27AM 55.0130 -15.1650 275° West 397 457 36,000 60 Level FlightAware
05:30AM 55.0364 -15.6786 275° West  Level Estimated
05:31AM 55.0444 -15.8689 274° West  Level Estimated
05:32AM 55.0522 -16.0593 274° West  Level Estimated
05:33AM 55.0597 -16.2499 274° West  Level Estimated
05:34AM 55.0670 -16.4404 274° West  Level Estimated
05:35AM 55.0739 -16.6311 274° West  Level Estimated
05:36AM 55.0808 -16.8305 274° West  Level Estimated
05:37AM 55.0873 -17.0299 273° West  Level Estimated
05:38AM 55.0936 -17.2295 273° West  Level Estimated
05:39AM 55.0995 -17.4290 273° West  Level Estimated
05:40AM 55.1051 -17.6287 273° West  Level Estimated
05:41AM 55.1104 -17.8284 273° West  Level Estimated
05:42AM 55.1153 -18.0281 273° West  Level Estimated
05:43AM 55.1200 -18.2279 272° West  Level Estimated
05:44AM 55.1243 -18.4277 272° West  Level Estimated
05:45AM 55.1282 -18.6276 272° West  Level Estimated
05:46AM 55.1319 -18.8275 272° West  Level Estimated
05:47AM 55.1352 -19.0275 272° West  Level Estimated
05:48AM 55.1382 -19.2275 272° West  Level Estimated
05:49AM 55.1408 -19.4275 271° West  Level Estimated
05:50AM 55.1432 -19.6275 271° West  Level Estimated
05:51AM 55.1451 -19.8276 271° West  Level Estimated
05:51AM 56.0000 -20.0000 274° West 427 491 38,000  Level ETMS Enhanced Traffic Management System
05:52AM 55.1468 -20.0277 271° West  Level Estimated
05:53AM 55.1482 -20.2277 271° West  Level Estimated
05:54AM 55.1492 -20.4278 271° West  Level Estimated
05:55AM 55.1499 -20.6280 270° West  Level Estimated
05:56AM 55.1502 -20.8281 270° West  Level Estimated
05:57AM 56.0513 -21.4862 273° West 427 491 38,000  Level FlightAware Transoceanic
05:58AM 56.0571 -21.6989 273° West 427 491 38,000  Level FlightAware Transoceanic
05:59AM 56.0626 -21.9116 273° West 427 491 38,000  Level FlightAware Transoceanic
06:00AM 56.0678 -22.1243 272° West 427 491 38,000  Level FlightAware Transoceanic
06:01AM 56.0725 -22.3371 272° West 427 491 38,000  Level FlightAware Transoceanic
06:02AM 56.0769 -22.5499 272° West 427 491 38,000  Level FlightAware Transoceanic
06:03AM 56.0810 -22.7628 272° West 427 491 38,000  Level FlightAware Transoceanic
06:04AM 56.0846 -22.9758 272° West 427 491 38,000  Level FlightAware Transoceanic
06:05AM 56.0879 -23.1887 272° West 427 491 38,000  Level FlightAware Transoceanic
06:06AM 56.0909 -23.4018 271° West 427 491 38,000  Level FlightAware Transoceanic
06:07AM 56.0934 -23.6148 271° West 427 491 38,000  Level FlightAware Transoceanic
06:08AM 56.0956 -23.8279 271° West 427 491 38,000  Level FlightAware Transoceanic
06:09AM 56.0975 -24.0409 271° West 427 491 38,000  Level FlightAware Transoceanic
06:10AM 56.0989 -24.2540 271° West 427 491 38,000  Level FlightAware Transoceanic
06:11AM 56.1001 -24.4672 270° West 427 491 38,000  Level FlightAware Transoceanic
06:12AM 56.1008 -24.6803 270° West 427 491 38,000  Level FlightAware Transoceanic
06:13AM 56.1012 -24.8934 270° West 427 491 38,000  Level FlightAware Transoceanic
06:14AM 56.1012 -25.1066 270° West 427 491 38,000  Level FlightAware Transoceanic
06:15AM 56.1008 -25.3197 270° West 427 491 38,000  Level FlightAware Transoceanic
06:16AM 56.1001 -25.5328 270° West 427 491 38,000  Level FlightAware Transoceanic
06:17AM 56.0989 -25.7460 269° West 427 491 38,000  Level FlightAware Transoceanic
06:18AM 56.0975 -25.9591 269° West 427 491 38,000  Level FlightAware Transoceanic
06:19AM 56.0956 -26.1721 269° West 427 491 38,000  Level FlightAware Transoceanic
06:20AM 56.0934 -26.3852 269° West 427 491 38,000  Level FlightAware Transoceanic
06:21AM 56.0909 -26.5982 269° West 427 491 38,000  Level FlightAware Transoceanic
06:22AM 56.0879 -26.8113 268° West 427 491 38,000  Level FlightAware Transoceanic
06:23AM 56.0846 -27.0242 268° West 427 491 38,000  Level FlightAware Transoceanic
06:24AM 56.0810 -27.2372 268° West 427 491 38,000  Level FlightAware Transoceanic
06:25AM 56.0769 -27.4501 268° West 427 491 38,000  Level FlightAware Transoceanic
06:26AM 56.0725 -27.6629 268° West 427 491 38,000  Level FlightAware Transoceanic
06:27AM 56.0678 -27.8757 268° West 427 491 38,000  Level FlightAware Transoceanic
06:28AM 56.0626 -28.0884 267° West 427 491 38,000  Level FlightAware Transoceanic
06:29AM 56.0571 -28.3011 267° West 427 491 38,000  Level FlightAware Transoceanic
06:30AM 56.0513 -28.5138 267° West 427 491 38,000  Level FlightAware Transoceanic
06:31AM 56.0450 -28.7263 267° West 427 491 38,000  Level FlightAware Transoceanic
06:32AM 56.0384 -28.9388 267° West 427 491 38,000  Level FlightAware Transoceanic
06:33AM 56.0315 -29.1512 267° West 427 491 38,000  Level FlightAware Transoceanic
06:34AM 56.0242 -29.3635 266° West 427 491 38,000  Level FlightAware Transoceanic
06:35AM 56.0165 -29.5758 266° West 427 491 38,000  Level FlightAware Transoceanic
06:36AM 56.0084 -29.7879 266° West 427 491 38,000  Level FlightAware Transoceanic
06:37AM 56.0003 -29.9919 266° West  Level FlightAware Approximate
06:38AM 55.9918 -30.1959 266° West  Level FlightAware Approximate
06:39AM 56.0075 -30.1879 274° West  Level FlightAware Approximate
06:40AM 56.0153 -30.3920 274° West  Level FlightAware Approximate
06:41AM 56.0227 -30.5961 274° West  Level FlightAware Approximate
06:42AM 56.0299 -30.8004 274° West  Level FlightAware Approximate
06:43AM 56.0366 -31.0047 273° West  Level FlightAware Approximate
06:44AM 56.0431 -31.2090 273° West  Level FlightAware Approximate
06:45AM 56.0492 -31.4135 273° West  Level FlightAware Approximate
06:46AM 56.0550 -31.6180 273° West  Level FlightAware Approximate
06:47AM 56.0604 -31.8226 273° West  Level FlightAware Approximate
06:48AM 56.0655 -32.0272 273° West  Level FlightAware Approximate
06:49AM 56.0702 -32.2319 272° West  Level FlightAware Approximate
06:50AM 56.0746 -32.4366 272° West  Level FlightAware Approximate
06:51AM 56.0787 -32.6414 272° West  Level FlightAware Approximate
06:52AM 56.0825 -32.8462 272° West  Level FlightAware Approximate
06:53AM 56.0858 -33.0510 272° West  Level FlightAware Approximate
06:54AM 56.0889 -33.2559 272° West  Level FlightAware Approximate
06:55AM 56.0916 -33.4609 271° West  Level FlightAware Approximate
06:56AM 56.0940 -33.6658 271° West  Level FlightAware Approximate
06:57AM 56.0961 -33.8708 271° West  Level FlightAware Approximate
06:58AM 56.0978 -34.0758 271° West  Level FlightAware Approximate
06:59AM 56.0991 -34.2808 271° West  Level FlightAware Approximate
07:00AM 56.1001 -34.4858 271° West  Level FlightAware Approximate
07:01AM 56.1008 -34.6908 270° West  Level FlightAware Approximate
07:02AM 56.1012 -34.8958 270° West  Level FlightAware Approximate
07:03AM 56.1012 -35.1009 270° West  Level FlightAware Approximate
07:04AM 56.1008 -35.3059 270° West  Level FlightAware Approximate
07:05AM 56.1001 -35.5109 270° West  Level FlightAware Approximate
07:06AM 56.0991 -35.7160 270° West  Level FlightAware Approximate
07:07AM 56.0978 -35.9210 269° West  Level FlightAware Approximate
07:08AM 56.0961 -36.1259 269° West  Level FlightAware Approximate
07:09AM 56.0940 -36.3309 269° West  Level FlightAware Approximate
07:10AM 56.0917 -36.5359 269° West  Level FlightAware Approximate
07:11AM 56.0890 -36.7408 269° West  Level FlightAware Approximate
07:12AM 56.0859 -36.9457 269° West  Level FlightAware Approximate
07:13AM 56.0825 -37.1505 268° West  Level FlightAware Approximate
07:14AM 56.0788 -37.3553 268° West  Level FlightAware Approximate
07:15AM 56.0747 -37.5601 268° West  Level FlightAware Approximate
07:16AM 56.0703 -37.7648 268° West  Level FlightAware Approximate
07:17AM 56.0656 -37.9695 268° West  Level FlightAware Approximate
07:18AM 56.0605 -38.1741 268° West  Level FlightAware Approximate
07:19AM 56.0550 -38.3787 267° West  Level FlightAware Approximate
07:20AM 56.0493 -38.5832 267° West  Level FlightAware Approximate
07:21AM 56.0432 -38.7877 267° West  Level FlightAware Approximate
07:22AM 56.0367 -38.9920 267° West  Level FlightAware Approximate
07:23AM 56.0300 -39.1964 267° West  Level FlightAware Approximate
07:24AM 56.0229 -39.4006 267° West  Level FlightAware Approximate
07:25AM 56.0154 -39.6048 266° West  Level FlightAware Approximate
07:26AM 56.0076 -39.8088 266° West  Level FlightAware Approximate
07:27AM 56.0005 -40.0128 274° West  Level FlightAware Approximate
07:28AM 56.0086 -40.2169 274° West  Level FlightAware Approximate
07:29AM 56.0163 -40.4209 274° West  Level FlightAware Approximate
07:30AM 56.0238 -40.6251 274° West  Level FlightAware Approximate
07:31AM 56.0308 -40.8294 274° West  Level FlightAware Approximate
07:32AM 56.0376 -41.0337 273° West  Level FlightAware Approximate
07:33AM 56.0440 -41.2381 273° West  Level FlightAware Approximate
07:34AM 56.0500 -41.4425 273° West  Level FlightAware Approximate
07:35AM 56.0557 -41.6470 273° West  Level FlightAware Approximate
07:36AM 56.0611 -41.8516 273° West  Level FlightAware Approximate
07:37AM 56.0662 -42.0563 273° West  Level FlightAware Approximate
07:38AM 56.0709 -42.2609 272° West  Level FlightAware Approximate
07:39AM 56.0752 -42.4657 272° West  Level FlightAware Approximate
07:40AM 56.0793 -42.6705 272° West  Level FlightAware Approximate
07:41AM 56.0830 -42.8753 272° West  Level FlightAware Approximate
07:42AM 56.0863 -43.0801 272° West  Level FlightAware Approximate
07:43AM 56.0893 -43.2850 272° West  Level FlightAware Approximate
07:44AM 56.0920 -43.4899 271° West  Level FlightAware Approximate
07:45AM 56.0943 -43.6949 271° West  Level FlightAware Approximate
07:46AM 56.0963 -43.8999 271° West  Level FlightAware Approximate
07:47AM 56.0980 -44.1049 271° West  Level FlightAware Approximate
07:48AM 56.0993 -44.3099 271° West  Level FlightAware Approximate
07:49AM 56.1002 -44.5149 271° West  Level FlightAware Approximate
07:50AM 56.1009 -44.7199 270° West  Level FlightAware Approximate
07:51AM 56.1012 -44.9249 270° West  Level FlightAware Approximate
07:52AM 56.1011 -45.1300 270° West  Level FlightAware Approximate
07:53AM 56.1007 -45.3350 270° West  Level FlightAware Approximate
07:54AM 56.1000 -45.5400 270° West  Level FlightAware Approximate
07:55AM 56.0990 -45.7450 270° West  Level FlightAware Approximate
07:56AM 56.0976 -45.9501 269° West  Level FlightAware Approximate
07:57AM 56.0958 -46.1550 269° West  Level FlightAware Approximate
07:58AM 56.0937 -46.3600 269° West  Level FlightAware Approximate
07:59AM 56.0913 -46.5649 269° West  Level FlightAware Approximate
08:00AM 56.0886 -46.7699 269° West  Level FlightAware Approximate
08:01AM 56.0855 -46.9747 269° West  Level FlightAware Approximate
08:02AM 56.0820 -47.1796 268° West  Level FlightAware Approximate
08:03AM 56.0782 -47.3844 268° West  Level FlightAware Approximate
08:04AM 56.0741 -47.5892 268° West  Level FlightAware Approximate
08:05AM 56.0697 -47.7939 268° West  Level FlightAware Approximate
08:06AM 56.0649 -47.9986 268° West  Level FlightAware Approximate
08:07AM 56.0597 -48.2032 268° West  Level FlightAware Approximate
08:08AM 56.0542 -48.4077 267° West  Level FlightAware Approximate
08:09AM 56.0484 -48.6122 267° West  Level FlightAware Approximate
08:10AM 56.0423 -48.8167 267° West  Level FlightAware Approximate
08:11AM 56.0358 -49.0210 267° West  Level FlightAware Approximate
08:12AM 56.0290 -49.2253 267° West  Level FlightAware Approximate
08:13AM 56.0218 -49.4296 266° West  Level FlightAware Approximate
08:14AM 56.0143 -49.6337 266° West  Level FlightAware Approximate
08:15AM 56.0065 -49.8378 266° West  Level FlightAware Approximate
08:16AM 55.9906 -50.0384 246° West  Level FlightAware Approximate
08:17AM 55.9447 -50.2255 246° West  Level FlightAware Approximate
08:18AM 55.8984 -50.4122 246° West  Level FlightAware Approximate
08:19AM 55.8519 -50.5984 246° West  Level FlightAware Approximate
08:20AM 55.8051 -50.7841 246° West  Level FlightAware Approximate
08:21AM 55.7581 -50.9695 246° West  Level FlightAware Approximate
08:22AM 55.7107 -51.1543 246° West  Level FlightAware Approximate
08:23AM 55.6631 -51.3387 245° Southwest  Level FlightAware Approximate
08:24AM 55.6152 -51.5227 245° Southwest  Level FlightAware Approximate
08:25AM 55.5670 -51.7062 245° Southwest  Level FlightAware Approximate
08:26AM 55.5186 -51.8893 245° Southwest  Level FlightAware Approximate
08:27AM 55.4698 -52.0719 245° Southwest  Level FlightAware Approximate
08:28AM 55.4208 -52.2541 245° Southwest  Level FlightAware Approximate
08:29AM 55.3716 -52.4358 245° Southwest  Level FlightAware Approximate
08:30AM 55.3220 -52.6171 244° Southwest  Level FlightAware Approximate
08:31AM 55.2722 -52.7979 244° Southwest  Level FlightAware Approximate
08:32AM 55.2222 -52.9782 244° Southwest  Level FlightAware Approximate
08:33AM 55.1718 -53.1581 244° Southwest  Level FlightAware Approximate
08:34AM 55.1212 -53.3376 244° Southwest  Level FlightAware Approximate
08:35AM 55.0704 -53.5166 244° Southwest  Level FlightAware Approximate
08:36AM 55.0192 -53.6951 244° Southwest  Level FlightAware Approximate
08:37AM 54.9679 -53.8732 243° Southwest  Level FlightAware Approximate
08:38AM 54.9162 -54.0508 243° Southwest  Level FlightAware Approximate
08:38AM 54.7833 -55.1500 231° Southwest 450 518 38,000  Level Moncton Center
08:39AM 54.8643 -54.2280 243° Southwest  Level FlightAware Approximate
08:39AM 54.7500 -55.3167 251° West 450 518 38,000  Level Gander Center
08:40AM 54.8122 -54.4047 243° Southwest  Level FlightAware Approximate
08:40AM 54.7000 -55.5000 245° Southwest 450 518 38,000  Level Gander Center
08:41AM 54.7598 -54.5809 243° Southwest  Level FlightAware Approximate
08:41AM 54.6500 -55.7000 247° West 450 518 38,000  Level Gander Center
08:42AM 54.6877 -54.7336 231° Southwest  Level Estimated
08:42AM 54.5833 -55.8833 238° Southwest 450 518 38,000  Level Gander Center
08:43AM 54.6155 -54.8857 231° Southwest  Level Estimated
08:43AM 54.5167 -56.0667 238° Southwest 450 518 38,000  Level Gander Center
08:44AM 54.4500 -56.2167 233° Southwest 450 518 38,000  Level Gander Center
08:45AM 54.3500 -56.4333 232° Southwest 460 529 38,000  Level Gander Center
08:46AM 54.3000 -56.5833 240° Southwest 460 529 38,000  Level Gander Center
08:46AM 54.2667 -56.6333 221° Southwest 470 541 38,000  Level Moncton Center
08:47AM 54.2000 -56.8167 238° Southwest 470 541 38,000  Level Moncton Center
08:48AM 54.1333 -56.9500 230° Southwest 470 541 38,000  Level Gander Center
08:49AM 54.0667 -57.1167 236° Southwest 470 541 38,000  Level Gander Center
08:49AM 54.0333 -57.2000 236° Southwest 470 541 38,000  Level Moncton Center
08:50AM 53.9833 -57.3667 243° Southwest 470 541 38,000  Level Moncton Center
08:51AM 53.9167 -57.5000 230° Southwest 460 529 38,000  Level Gander Center
08:52AM 53.8667 -57.6833 245° Southwest 460 529 38,000  Level Gander Center
08:53AM 53.7833 -57.8500 230° Southwest 460 529 38,000  Level Gander Center
08:54AM 53.7167 -58.0667 243° Southwest 460 529 38,000  Level Gander Center
08:55AM 53.6667 -58.2333 243° Southwest 460 529 38,000  Level Gander Center
08:56AM 53.5833 -58.4167 233° Southwest 460 529 38,000  Level Gander Center
08:57AM 53.5167 -58.6167 241° Southwest 460 529 38,000  Level Gander Center
08:58AM 53.4500 -58.7833 236° Southwest 460 529 38,000  Level Gander Center
08:59AM 53.3667 -58.9833 235° Southwest 460 529 38,000  Level Gander Center
09:00AM 53.3167 -59.1500 243° Southwest 460 529 38,000  Level Gander Center
09:01AM 53.2500 -59.3333 239° Southwest 460 529 38,000  Level Gander Center
09:02AM 53.1667 -59.5333 235° Southwest 460 529 38,000  Level Gander Center
09:03AM 53.1000 -59.7000 236° Southwest 460 529 38,000  Level Gander Center
09:04AM 53.0167 -59.8667 230° Southwest 460 529 38,000  Level Gander Center
09:05AM 52.9500 -60.0333 236° Southwest 460 529 38,000  Level Gander Center
09:06AM 52.8833 -60.2000 237° Southwest 460 529 38,000  Level Gander Center
09:07AM 52.8167 -60.4000 241° Southwest 460 529 38,000  Level Gander Center
09:07AM 52.8000 -60.4333 230° Southwest 460 529 38,000  Level Moncton Center
09:08AM 52.7333 -60.6167 239° Southwest 450 518 38,000  Level Moncton Center
09:09AM 52.6500 -60.7833 231° Southwest 450 518 38,000  Level Moncton Center
09:10AM 52.5833 -60.9500 237° Southwest 450 518 38,000  Level Moncton Center
09:11AM 52.5167 -61.1333 239° Southwest 450 518 38,000  Level Moncton Center
09:12AM 52.4667 -61.2500 235° Southwest 450 518 38,000  Level Gander Center
09:13AM 52.4000 -61.4167 237° Southwest 450 518 38,000  Level Gander Center
09:13AM 52.3667 -61.4667 222° Southwest 450 518 38,000  Level Moncton Center
09:14AM 52.3000 -61.6333 237° Southwest 450 518 38,000  Level Moncton Center
09:15AM 52.2167 -61.8000 231° Southwest 450 518 38,000  Level Moncton Center
09:16AM 52.1667 -61.9333 239° Southwest 450 518 38,000  Level Gander Center
09:17AM 52.1000 -62.0667 231° Southwest 440 506 38,000  Level Gander Center
09:18AM 52.0333 -62.2333 237° Southwest 440 506 38,000  Level Gander Center
09:19AM 51.9667 -62.4167 240° Southwest 440 506 38,000  Level Gander Center
09:19AM 51.9500 -62.4667 242° Southwest 440 506 38,000  Level Moncton Center
09:20AM 51.8667 -62.6167 228° Southwest 440 506 38,000  Level Moncton Center
09:21AM 51.8333 -62.7500 248° West 440 506 38,000  Level Gander Center
09:22AM 51.7667 -62.9000 234° Southwest 440 506 38,000  Level Gander Center
09:23AM 51.6833 -63.0667 231° Southwest 430 495 38,000  Level Gander Center
09:24AM 51.6000 -63.2167 228° Southwest 430 495 38,000  Level Gander Center
09:24AM 51.6000 -63.2667 270° West 430 495 38,000  Level Moncton Center
09:25AM 51.5333 -63.4000 231° Southwest 430 495 38,000  Level Moncton Center
09:26AM 51.4667 -63.5333 231° Southwest 430 495 38,000  Level Gander Center
09:27AM 51.4000 -63.6667 231° Southwest 430 495 38,000  Level Gander Center
09:28AM 51.3333 -63.8500 240° Southwest 430 495 38,000  Level Gander Center
09:29AM 51.2667 -63.9833 231° Southwest 430 495 38,000  Level Gander Center
09:30AM 51.1833 -64.1333 228° Southwest 430 495 38,000  Level Gander Center
09:30AM 51.1667 -64.1833 242° Southwest 430 495 38,000  Level Moncton Center
09:31AM 51.1000 -64.3500 238° Southwest 430 495 38,000  Level Moncton Center
09:32AM 51.0333 -64.5000 235° Southwest 430 495 38,000  Level Moncton Center
09:33AM 50.9667 -64.6000 223° Southwest 430 495 38,000  Level Gander Center
09:34AM 50.9000 -64.7500 235° Southwest 430 495 38,000  Level Gander Center
09:35AM 50.8333 -64.9167 238° Southwest 430 495 38,100 240 Climbing Gander Center
09:36AM 50.7667 -65.0667 235° Southwest 430 495 38,500 420 Climbing Gander Center
09:37AM 50.6833 -65.1833 222° Southwest 430 495 39,000 540 Climbing Gander Center
09:38AM 50.6000 -65.3667 234° Southwest 440 506 39,600 480 Climbing Gander Center
09:39AM 50.5333 -65.5167 235° Southwest 440 506 40,000 180 Climbing Gander Center
09:40AM 50.4500 -65.6667 229° Southwest 440 506 40,000  Level Gander Center
09:40AM 50.4333 -65.7167 242° Southwest 440 506 40,000  Level Moncton Center
09:41AM 50.3500 -65.8667 229° Southwest 430 495 40,000  Level Moncton Center
09:42AM 50.3167 -65.9667 242° Southwest 430 495 40,000  Level Gander Center
09:43AM 50.2333 -66.1167 229° Southwest 430 495 40,000  Level Gander Center
09:44AM 50.1667 -66.2500 232° Southwest 430 495 40,000  Level Gander Center
09:45AM 50.0833 -66.4000 229° Southwest 430 495 40,000  Level Gander Center
09:46AM 50.0167 -66.5333 232° Southwest 420 483 40,000  Level Gander Center
09:47AM 49.9500 -66.6833 235° Southwest 420 483 40,000  Level Gander Center
09:47AM 49.9167 -66.7167 213° Southwest 420 483 40,000  Level Moncton Center
09:48AM 49.8500 -66.8000 219° Southwest 420 483 40,000  Level Montreal Center
09:49AM 49.7667 -66.9167 222° Southwest 430 495 40,000  Level Montreal Center
09:50AM 49.6667 -67.0167 213° Southwest 430 495 40,000  Level Montreal Center
09:51AM 49.5833 -67.1333 222° Southwest 430 495 40,000  Level Montreal Center
09:52AM 49.4667 -67.2333 209° Southwest 430 495 40,000  Level Montreal Center
09:53AM 49.3667 -67.3500 217° Southwest 430 495 40,000  Level Montreal Center
09:54AM 49.2833 -67.4667 222° Southwest 430 495 40,000  Level Montreal Center
09:55AM 49.1833 -67.5667 213° Southwest 430 495 40,000  Level Montreal Center
09:56AM 49.0833 -67.6833 217° Southwest 430 495 40,000  Level Montreal Center
09:57AM 48.9833 -67.7833 213° Southwest 430 495 40,000  Level Montreal Center
09:58AM 48.9000 -67.9000 223° Southwest 430 495 40,000  Level Montreal Center
10:04AM 48.3140 -68.5730 223° Southwest 422 486 40,000  Level FlightAware
10:04AM 48.2510 -68.6430 217° Southwest 419 482 40,000  Level FlightAware
10:05AM 48.1820 -68.7190 216° Southwest 417 480 40,000  Level FlightAware
10:06AM 48.1200 -68.7870 216° Southwest 415 478 40,000  Level FlightAware
10:06AM 48.0500 -68.8630 216° Southwest 414 476 40,000  Level FlightAware
10:07AM 47.9880 -68.9300 216° Southwest 412 474 40,000  Level FlightAware
10:08AM 47.9200 -69.0040 216° Southwest 407 468 40,000  Level FlightAware
10:09AM 47.8600 -69.0700 216° Southwest 403 464 40,000  Level FlightAware
10:09AM 47.8000 -69.1330 215° Southwest 397 457 40,000  Level FlightAware
10:10AM 47.7340 -69.2050 216° Southwest 395 455 40,000  Level FlightAware
10:11AM 47.6750 -69.2690 216° Southwest 399 459 40,000  Level FlightAware
10:11AM 47.6080 -69.3410 216° Southwest 405 466 40,000  Level FlightAware
10:12AM 47.5470 -69.4050 215° Southwest 408 470 40,000  Level FlightAware
10:13AM 47.4780 -69.4790 216° Southwest 410 472 40,000  Level FlightAware
10:13AM 47.4170 -69.5450 216° Southwest 413 475 40,000  Level FlightAware
10:14AM 47.3550 -69.6100 215° Southwest 415 478 40,000  Level FlightAware
10:15AM 47.2940 -69.6750 216° Southwest 415 478 40,000  Level FlightAware
10:16AM 47.2230 -69.7500 216° Southwest 416 479 40,000  Level FlightAware
10:16AM 47.1530 -69.8230 215° Southwest 415 478 40,000  Level FlightAware
10:17AM 47.0910 -69.8890 216° Southwest 414 476 40,000  Level FlightAware
10:18AM 47.0290 -69.9540 216° Southwest 413 475 40,000  Level FlightAware
10:18AM 46.9600 -70.0270 216° Southwest 413 475 40,000  Level FlightAware
10:19AM 46.8980 -70.0910 215° Southwest 411 473 40,000  Level FlightAware
10:20AM 46.8280 -70.1640 216° Southwest 410 472 40,000  Level FlightAware
10:20AM 46.7660 -70.2280 215° Southwest 413 475 40,000  Level FlightAware
10:21AM 46.6960 -70.3000 215° Southwest 423 487 40,000  Level FlightAware
10:22AM 46.6320 -70.3670 216° Southwest 427 491 40,000  Level FlightAware
10:23AM 46.5680 -70.4320 215° Southwest 428 493 40,000  Level FlightAware
10:23AM 46.4950 -70.5070 215° Southwest 430 495 40,000  Level FlightAware
10:24AM 46.4300 -70.5730 215° Southwest 432 497 40,000  Level FlightAware
10:25AM 46.3650 -70.6400 215° Southwest 435 501 40,000  Level FlightAware
10:25AM 46.2900 -70.7150 215° Southwest 437 503 40,000  Level FlightAware
10:26AM 46.2250 -70.7820 216° Southwest 438 504 40,000  Level FlightAware
10:27AM 46.1500 -70.8570 215° Southwest 440 506 40,000  Level FlightAware
10:27AM 46.0840 -70.9240 215° Southwest 441 507 40,000  Level FlightAware
10:28AM 46.0170 -70.9910 215° Southwest 444 511 40,000  Level FlightAware
10:29AM 45.9410 -71.0660 214° Southwest 444 511 40,000  Level FlightAware
10:30AM 45.8740 -71.1340 215° Southwest 441 507 40,000  Level FlightAware
10:30AM 45.7990 -71.2080 215° Southwest 439 505 40,000  Level FlightAware
10:31AM 45.7320 -71.2740 215° Southwest 434 499 40,000  Level FlightAware
10:32AM 45.6670 -71.3390 215° Southwest 430 495 40,000  Level FlightAware
10:32AM 45.5940 -71.4100 214° Southwest 432 497 40,000  Level FlightAware
10:33AM 45.5280 -71.4750 215° Southwest 434 499 40,000  Level FlightAware
10:34AM 45.4640 -71.5380 215° Southwest 436 502 40,000  Level FlightAware
10:34AM 45.3880 -71.6110 214° Southwest 437 503 40,000  Level FlightAware
10:35AM 45.3240 -71.6730 214° Southwest 438 504 40,000  Level FlightAware
10:36AM 45.2460 -71.7490 214° Southwest 441 507 40,000  Level FlightAware
10:37AM 45.1800 -71.8130 214° Southwest 444 511 40,000  Level FlightAware
10:37AM 45.1060 -71.8830 214° Southwest 442 509 40,000  Level FlightAware
10:38AM 45.0360 -71.9510 214° Southwest 443 510 40,000  Level FlightAware
10:39AM 44.9670 -72.0160 214° Southwest 444 511 40,000  Level FlightAware
10:39AM 44.8880 -72.0910 214° Southwest 444 511 40,000  Level FlightAware
10:40AM 44.8200 -72.1560 214° Southwest 444 511 40,000  Level FlightAware
10:41AM 44.7460 -72.2250 214° Southwest 444 511 40,000  Level FlightAware
10:41AM 44.6780 -72.2890 214° Southwest 442 509 40,000  Level FlightAware
10:42AM 44.6070 -72.3550 214° Southwest 441 507 40,000  Level FlightAware
10:43AM 44.5330 -72.4250 214° Southwest 439 505 40,000  Level FlightAware
10:44AM 44.4670 -72.4860 213° Southwest 437 503 40,000  Level FlightAware
10:44AM 44.4010 -72.5470 213° Southwest 435 501 40,000  Level FlightAware
10:45AM 44.3270 -72.6150 213° Southwest 432 497 40,000  Level FlightAware
10:46AM 44.2600 -72.6770 214° Southwest 431 496 40,000 -180 Level FlightAware
10:46AM 44.1800 -72.7500 213° Southwest 426 490 39,800 -540 Descending FlightAware
10:47AM 44.1160 -72.8080 213° Southwest 411 473 39,300 -780 Descending FlightAware
10:48AM 44.0470 -72.8710 213° Southwest 393 452 38,700 -1,200 Descending FlightAware
10:48AM 43.9870 -72.9260 213° Southwest 393 452 37,600 -1,740 Descending FlightAware
10:49AM 43.9190 -72.9880 213° Southwest 395 455 36,300 -1,980 Descending FlightAware
10:50AM 43.8550 -73.0450 213° Southwest 403 464 34,800 -2,220 Descending FlightAware
10:51AM 43.7920 -73.1020 213° Southwest 412 474 33,400 -1,860 Descending FlightAware
10:51AM 43.7210 -73.1650 213° Southwest 418 481 32,200 -1,320 Descending FlightAware
10:52AM 43.6760 -73.2050 213° Southwest 419 482 31,800 -600 Descending FlightAware
10:53AM 43.5920 -73.2790 213° Southwest 420 483 31,400 -1,320 Descending FlightAware
10:53AM 43.5150 -73.3480 213° Southwest 427 491 29,800 -1,800 Descending FlightAware
10:54AM 43.4480 -73.4070 213° Southwest 429 494 29,000 -600 Descending FlightAware
10:55AM 43.3820 -73.4640 212° Southwest 428 493 29,000  Level FlightAware
10:55AM 43.3250 -73.5140 213° Southwest 428 493 29,000  Level FlightAware
10:56AM 43.2680 -73.5630 212° Southwest 428 493 29,000  Level FlightAware
10:57AM 43.2110 -73.6120 212° Southwest 428 493 29,000 -5,640 Level FlightAware
10:57AM 43.1320 -73.6550 202° Southwest 426 490 23,400 -5,640 Descending FlightAware
10:58AM 43.0340 -73.6950 197° South 406 467 22,000 -900 Descending FlightAware
10:59AM 42.9620 -73.7260 197° South 411 473 22,000  Level FlightAware
10:59AM 42.8920 -73.7930 215° Southwest 390 449 22,000  Level FlightAware
11:00AM 42.8620 -73.8810 245° Southwest 382 440 22,000  Level FlightAware
11:01AM 42.8220 -73.9650 237° Southwest 372 428 22,000  Level FlightAware
11:02AM 42.7560 -74.0010 202° Southwest 405 466 22,000 -600 Level FlightAware
11:02AM 42.6790 -74.0070 183° South 402 463 21,200 -1,680 Descending FlightAware
11:03AM 42.6020 -74.0120 183° South 392 451 19,700 -1,680 Descending FlightAware
11:04AM 42.5260 -74.0180 183° South 363 418 18,900 -720 Descending FlightAware
11:04AM 42.4590 -74.0230 183° South 361 415 18,700 -180 Descending FlightAware
11:05AM 42.4030 -74.0270 183° South 361 415 18,700  Level FlightAware
11:06AM 42.3460 -74.0310 183° South 361 415 18,700  Level FlightAware
11:06AM 42.2890 -74.0350 183° South 361 415 18,700  Level FlightAware
11:07AM 42.2330 -74.0390 183° South 361 415 18,700  Level FlightAware
11:08AM 42.1760 -74.0430 183° South 361 415 18,700 -2,520 Level FlightAware
11:08AM 42.1303 -73.9097 183° South 307 353 16,100 -1,140 Descending Boston Center
11:14AM 41.6970 -74.2560 183° South 305 351 11,900 -780 Descending FlightAware
11:15AM 41.6400 -74.2940 206° Southwest 291 335 11,000 -1,200 Descending FlightAware
11:15AM 41.6070 -74.3080 198° South 285 328 10,400 -480 Descending FlightAware
11:16AM 41.5450 -74.3340 197° South 285 328 10,400  Level FlightAware
11:17AM 41.5020 -74.3510 196° South 285 328 10,400 -660 Level FlightAware
11:22AM 41.1520 -74.5000 198° South 262 302 7,000 -660 Descending FlightAware
11:22AM 41.1270 -74.5110 198° South 262 302 7,000  Level FlightAware
11:23AM 41.0930 -74.5250 197° South 262 302 7,000 -120 Level FlightAware
11:23AM 41.0610 -74.5400 199° South 257 296 6,900  Descending FlightAware
11:23AM 41.0300 -74.5620 208° Southwest 253 291 7,000 120 Climbing FlightAware
11:24AM 41.0214 -74.5690 212° Southwest 254 292 7,000 -300 Level FlightAware ADS-B
11:24AM 41.0037 -74.5831 211° Southwest 254 292 6,900 -540 Descending FlightAware ADS-B
11:24AM 40.9730 -74.6060 209° Southwest 255 293 6,600 -780 Descending FlightAware
11:25AM 40.9550 -74.6100 190° South 266 306 6,300 -1,260 Descending FlightAware
11:25AM 40.9417 -74.6097 179° South 267 307 6,100 -840 Descending FlightAware ADS-B
11:25AM 40.9165 -74.6090 179° South 266 306 5,900 -180 Descending FlightAware ADS-B
11:25AM 40.8921 -74.6083 179° South 269 310 6,000 120 Climbing FlightAware ADS-B
11:26AM 40.8695 -74.6078 179° South 268 308 6,000 -240 Level FlightAware ADS-B
11:26AM 40.8527 -74.6044 171° South 276 318 5,900 -360 Descending FlightAware ADS-B
11:26AM 40.8475 -74.6015 157° South 284 327 5,900 540 Level FlightAware ADS-B
11:26AM 40.8401 -74.5955 148° Southeast 289 333 6,000 180 Climbing FlightAware ADS-B
11:27AM 40.8161 -74.5696 141° Southeast 293 337 6,000  Level FlightAware ADS-B
11:27AM 40.7891 -74.5508 152° Southeast 291 335 6,000 -300 Level FlightAware ADS-B
11:28AM 40.7296 -74.5494 179° South 266 306 5,700 -720 Descending FlightAware ADS-B
11:28AM 40.6830 -74.5500 181° South 265 305 5,000 -780 Descending FlightAware
11:29AM 40.6560 -74.5500 180° South 267 307 4,900  Descending FlightAware
11:29AM 40.6180 -74.5510 181° South 267 307 5,000 120 Climbing FlightAware
11:30AM 40.5970 -74.5520 182° South 266 306 5,000  Level FlightAware ADS-B
11:30AM 40.5778 -74.5525 181° South 267 307 5,000 -240 Level FlightAware ADS-B
11:30AM 40.5661 -74.5519 178° South 271 312 4,900 -780 Descending FlightAware ADS-B
11:30AM 40.5579 -74.5490 165° South 276 318 4,800 -600 Descending FlightAware ADS-B
11:30AM 40.5530 -74.5464 158° South 277 319 4,800 -600 Level FlightAware ADS-B
11:30AM 40.5444 -74.5409 154° Southeast 278 320 4,700 -840 Descending FlightAware ADS-B
11:30AM 40.5361 -74.5349 151° Southeast 278 320 4,600 -1,260 Descending FlightAware ADS-B
11:31AM 40.5183 -74.5222 152° Southeast 276 318 4,200 -1,080 Descending FlightAware ADS-B
11:31AM 40.4978 -74.5086 153° Southeast 275 316 4,000 -540 Descending FlightAware ADS-B
11:31AM 40.4781 -74.4964 155° Southeast 255 293 3,900 -240 Descending FlightAware ADS-B
11:32AM 40.4628 -74.4870 155° Southeast 238 274 3,900 240 Level FlightAware ADS-B
11:32AM 40.4539 -74.4808 152° Southeast 230 265 4,000 300 Climbing FlightAware ADS-B
11:32AM 40.4469 -74.4720 136° Southeast 230 265 4,000  Level FlightAware ADS-B
11:32AM 40.4441 -74.4662 122° Southeast 233 268 4,000  Level FlightAware ADS-B
11:32AM 40.4422 -74.4595 110° East 236 272 4,000  Level FlightAware ADS-B
11:32AM 40.4405 -74.4485 101° East 239 275 4,000 -300 Level FlightAware ADS-B
11:32AM 40.4388 -74.4259 96° East 235 270 3,900 -600 Descending FlightAware ADS-B
11:33AM 40.4365 -74.3912 95° East 230 265 3,600 -960 Descending FlightAware ADS-B
11:33AM 40.4409 -74.3716 74° East 229 264 3,300 -1,020 Descending FlightAware ADS-B
11:33AM 40.4470 -74.3611 53° Northeast 227 261 3,200 -960 Descending FlightAware ADS-B
11:33AM 40.4587 -74.3444 47° Northeast 227 261 2,900 -300 Descending FlightAware ADS-B
11:34AM 40.4826 -74.3109 47° Northeast 228 262 3,000 60 Climbing FlightAware ADS-B
11:34AM 40.4984 -74.2891 46° Northeast 226 260 3,000  Level FlightAware ADS-B
11:35AM 40.5045 -74.2823 40° Northeast 225 259 3,000  Level FlightAware ADS-B
11:35AM 40.5167 -74.2733 29° Northeast 226 260 3,000 -240 Level FlightAware ADS-B
11:35AM 40.5336 -74.2629 25° Northeast 226 260 2,900 -540 Descending FlightAware ADS-B
11:35AM 40.5485 -74.2538 25° Northeast 228 262 2,700 -1,080 Descending FlightAware ADS-B
11:36AM 40.5760 -74.2370 25° Northeast 206 237 2,100 -1,260 Descending FlightAware
11:36AM 40.5837 -74.2319 27° Northeast 198 228 1,900 -1,140 Descending FlightAware ADS-B
11:36AM 40.6053 -74.2187 25° Northeast 167 192 1,400 -1,020 Descending FlightAware ADS-B
11:37AM 40.6183 -74.2106 25° Northeast 150 173 1,100 -780 Descending FlightAware ADS-B
11:37AM 40.6256 -74.2061 25° Northeast 139 160 1,000 -720 Descending FlightAware ADS-B
11:37AM 40.6386 -74.1982 25° Northeast 131 151 700 -840 Descending FlightAware ADS-B
11:38AM 40.6496 -74.1915 25° Northeast 120 138 400 -780 Descending FlightAware ADS-B
11:38AM 40.6592 -74.1857 25° Northeast 123 142 200 -660 Descending FlightAware ADS-B